Time;durP1;ratioP1;P1;durP2;ratioP2;P2;SDS_P1;SDS_P2;PMS_P1;PMS_P2;Temp;Humidity;BMP_temperature;BMP_pressure;BME280_temperature;BME280_humidity;BME280_pressure;Samples;Min_cycle;Max_cycle;Signal;HPM_P1;HPM_P2
2021/08/01 00:00:35;;;;;;;1.95;0.63;;;;;;;;;;5024067;28;20030;-59
2021/08/01 00:03:01;;;;;;;1.25;0.63;;;;;;;;;;5030205;28;20023;-59
2021/08/01 00:05:27;;;;;;;1.65;0.60;;;;;;;;;;5044621;28;20104;-59
2021/08/01 00:07:54;;;;;;;0.75;0.63;;;;;;;;;;5047415;28;20503;-59
2021/08/01 00:10:20;;;;;;;0.93;0.60;;;;;;;;;;5047727;28;20517;-59
2021/08/01 00:12:46;;;;;;;0.75;0.70;;;;;;;;;;5046705;28;20422;-59
2021/08/01 00:15:13;;;;;;;0.80;0.70;;;;;;;;;;5046465;28;20032;-59
2021/08/01 00:17:40;;;;;;;0.77;0.60;;;;;;;;;;5046291;28;20029;-59
2021/08/01 00:20:07;;;;;;;0.50;0.50;;;;;;;;;;5047026;28;20405;-59
2021/08/01 00:22:33;;;;;;;0.93;0.70;;;;;;;;;;5046153;28;20036;-59
2021/08/01 00:25:00;;;;;;;1.45;0.70;;;;;;;;;;5048497;28;20395;-59
2021/08/01 00:27:33;;;;;;;0.63;0.55;;;;;;;;;;5047592;28;20033;-59
2021/08/01 00:30:00;;;;;;;0.65;0.55;;;;;;;;;;5038234;28;20041;-59
2021/08/01 00:32:26;;;;;;;0.75;0.50;;;;;;;;;;5027564;28;20053;-59
2021/08/01 00:34:52;;;;;;;1.05;0.60;;;;;;;;;;5027581;28;20060;-59
2021/08/01 00:37:18;;;;;;;0.82;0.60;;;;;;;;;;5027127;28;20021;-59
2021/08/01 00:39:44;;;;;;;0.80;0.70;;;;;;;;;;5027782;28;20040;-59
2021/08/01 00:42:10;;;;;;;1.42;0.85;;;;;;;;;;5045436;28;20032;-59
2021/08/01 00:44:37;;;;;;;1.27;0.90;;;;;;;;;;5047560;28;20033;-58
2021/08/01 00:47:04;;;;;;;1.10;0.75;;;;;;;;;;5047029;28;20202;-58
2021/08/01 00:49:30;;;;;;;1.77;0.57;;;;;;;;;;5047339;28;20444;-59
2021/08/01 00:51:56;;;;;;;0.90;0.65;;;;;;;;;;5047239;28;20097;-59
2021/08/01 00:54:23;;;;;;;0.70;0.70;;;;;;;;;;5027247;28;20053;-63
2021/08/01 00:56:49;;;;;;;1.20;0.68;;;;;;;;;;5027029;28;20088;-63
2021/08/01 00:59:16;;;;;;;0.70;0.60;;;;;;;;;;5027104;28;20091;-63
2021/08/01 01:02:06;;;;;;;1.05;0.70;;;;;;;;;;5046641;28;20025;-63
2021/08/01 01:04:42;;;;;;;1.27;0.65;;;;;;;;;;5046999;28;20033;-62
2021/08/01 01:07:11;;;;;;;1.08;0.60;;;;;;;;;;5046688;28;20086;-64
2021/08/01 01:09:57;;;;;;;0.73;0.60;;;;;;;;;;5028934;28;20053;-64
2021/08/01 01:12:26;;;;;;;2.10;0.60;;;;;;;;;;5026771;28;20057;-63
2021/08/01 01:14:53;;;;;;;0.77;0.75;;;;;;;;;;5026753;28;20587;-64
2021/08/01 01:17:24;;;;;;;2.13;0.80;;;;;;;;;;5032833;28;20029;-64
2021/08/01 01:19:56;;;;;;;0.80;0.80;;;;;;;;;;5046624;28;20024;-64
2021/08/01 01:22:25;;;;;;;0.55;0.55;;;;;;;;;;5046202;28;20119;-63
2021/08/01 01:24:53;;;;;;;0.93;0.73;;;;;;;;;;5046992;28;20039;-65
2021/08/01 01:27:25;;;;;;;1.02;0.70;;;;;;;;;;5046520;28;20061;-64
2021/08/01 01:29:58;;;;;;;0.65;0.65;;;;;;;;;;5046200;28;20060;-63
2021/08/01 01:32:31;;;;;;;0.70;0.70;;;;;;;;;;5044628;28;20102;-64
2021/08/01 01:34:58;;;;;;;1.13;0.80;;;;;;;;;;5046553;28;20033;-64
2021/08/01 01:37:26;;;;;;;0.63;0.63;;;;;;;;;;5046531;28;20546;-65
2021/08/01 01:39:53;;;;;;;1.65;0.80;;;;;;;;;;5046493;28;20492;-64
2021/08/01 01:42:22;;;;;;;0.85;0.68;;;;;;;;;;5046114;28;20581;-65
2021/08/01 01:44:50;;;;;;;1.52;1.00;;;;;;;;;;5046362;28;20033;-64
2021/08/01 01:47:17;;;;;;;1.02;0.77;;;;;;;;;;5045909;28;20032;-64
2021/08/01 01:49:43;;;;;;;0.70;0.70;;;;;;;;;;5045510;28;20155;-63
2021/08/01 01:52:11;;;;;;;0.70;0.70;;;;;;;;;;5033258;28;20036;-64
2021/08/01 01:54:37;;;;;;;1.33;0.93;;;;;;;;;;5035996;28;20033;-64
2021/08/01 01:57:05;;;;;;;2.40;0.80;;;;;;;;;;5046131;28;20226;-63
2021/08/01 01:59:32;;;;;;;1.10;0.73;;;;;;;;;;5044797;28;20109;-64
2021/08/01 02:01:59;;;;;;;1.15;0.75;;;;;;;;;;5046141;28;20029;-64
2021/08/01 02:04:26;;;;;;;0.75;0.75;;;;;;;;;;5045898;28;20064;-64
2021/08/01 02:06:53;;;;;;;1.20;0.80;;;;;;;;;;5046058;28;20112;-64
2021/08/01 02:09:47;;;;;;;1.08;0.70;;;;;;;;;;5045824;28;20049;-64
2021/08/01 02:12:14;;;;;;;0.85;0.80;;;;;;;;;;5043840;28;20419;-64
2021/08/01 02:14:43;;;;;;;0.80;0.80;;;;;;;;;;5044566;28;20100;-64
2021/08/01 02:17:12;;;;;;;0.93;0.93;;;;;;;;;;5045528;28;20029;-64
2021/08/01 02:19:39;;;;;;;1.00;0.90;;;;;;;;;;5027617;28;20075;-63
2021/08/01 02:22:07;;;;;;;1.55;0.90;;;;;;;;;;5026529;28;20465;-63
2021/08/01 02:24:35;;;;;;;1.65;0.88;;;;;;;;;;5027679;28;20467;-63
2021/08/01 02:27:02;;;;;;;1.50;0.80;;;;;;;;;;5025972;28;20037;-64
2021/08/01 02:29:28;;;;;;;0.73;0.73;;;;;;;;;;5029093;28;20491;-64
2021/08/01 02:31:55;;;;;;;0.82;0.70;;;;;;;;;;5041632;28;20067;-64
2021/08/01 02:34:23;;;;;;;1.67;1.00;;;;;;;;;;5046995;28;20028;-64
2021/08/01 02:36:51;;;;;;;1.40;0.80;;;;;;;;;;5047034;28;20483;-63
2021/08/01 02:39:19;;;;;;;1.00;0.90;;;;;;;;;;5046656;28;20028;-64
2021/08/01 02:41:47;;;;;;;1.38;1.10;;;;;;;;;;5046879;28;20032;-64
2021/08/01 02:44:18;;;;;;;1.30;1.00;;;;;;;;;;5046867;28;20399;-64
2021/08/01 02:46:47;;;;;;;0.82;0.80;;;;;;;;;;5046922;28;20485;-64
2021/08/01 02:49:24;;;;;;;1.65;1.20;;;;;;;;;;5046802;28;20017;-63
2021/08/01 02:51:52;;;;;;;1.45;0.88;;;;;;;;;;5046805;28;20025;-63
2021/08/01 02:54:19;;;;;;;1.88;1.00;;;;;;;;;;5045280;28;20056;-63
2021/08/01 02:56:47;;;;;;;1.30;0.90;;;;;;;;;;5035859;28;20025;-66
2021/08/01 02:59:13;;;;;;;1.77;1.10;;;;;;;;;;5028910;28;20057;-66
2021/08/01 03:01:41;;;;;;;1.10;1.00;;;;;;;;;;5026966;28;20488;-65
2021/08/01 03:04:08;;;;;;;1.15;1.05;;;;;;;;;;5027282;28;20025;-66
2021/08/01 03:06:35;;;;;;;1.23;0.85;;;;;;;;;;5027265;28;20384;-65
2021/08/01 03:09:02;;;;;;;1.60;0.98;;;;;;;;;;5027345;28;20033;-65
2021/08/01 03:11:32;;;;;;;2.20;1.30;;;;;;;;;;5026726;28;20029;-65
2021/08/01 03:13:58;;;;;;;1.13;0.90;;;;;;;;;;5027088;28;20025;-66
2021/08/01 03:16:25;;;;;;;1.48;0.90;;;;;;;;;;5026441;28;20503;-66
2021/08/01 03:18:51;;;;;;;0.75;0.75;;;;;;;;;;5027066;28;20503;-66
2021/08/01 03:21:18;;;;;;;0.70;0.70;;;;;;;;;;5026500;28;20434;-66
2021/08/01 03:23:44;;;;;;;1.00;0.90;;;;;;;;;;5026662;28;20033;-65
2021/08/01 03:26:10;;;;;;;0.80;0.80;;;;;;;;;;5027196;28;20029;-66
2021/08/01 03:28:36;;;;;;;1.00;0.82;;;;;;;;;;5026559;28;20096;-66
2021/08/01 03:31:02;;;;;;;0.90;0.90;;;;;;;;;;5026373;28;20072;-65
2021/08/01 03:33:28;;;;;;;0.93;0.77;;;;;;;;;;5026573;28;20026;-65
2021/08/01 03:35:54;;;;;;;1.23;1.10;;;;;;;;;;5026531;28;20389;-65
2021/08/01 03:38:21;;;;;;;0.88;0.80;;;;;;;;;;5026228;28;20025;-66
2021/08/01 03:40:51;;;;;;;0.88;0.88;;;;;;;;;;5025892;28;20025;-66
2021/08/01 03:43:17;;;;;;;1.35;1.00;;;;;;;;;;5026164;28;20057;-66
2021/08/01 03:45:44;;;;;;;0.95;0.85;;;;;;;;;;5026623;28;20496;-65
2021/08/01 03:48:10;;;;;;;1.42;1.10;;;;;;;;;;5026512;28;20025;-65
2021/08/01 03:50:36;;;;;;;0.75;0.75;;;;;;;;;;5025325;28;20099;-65
2021/08/01 03:53:02;;;;;;;1.20;0.80;;;;;;;;;;5026534;28;20026;-65
2021/08/01 03:55:28;;;;;;;1.27;0.70;;;;;;;;;;5026228;28;20028;-65
2021/08/01 03:57:54;;;;;;;1.25;0.82;;;;;;;;;;5026099;28;20026;-65
2021/08/01 04:00:21;;;;;;;0.70;0.70;;;;;;;;;;5025974;28;20105;-65
2021/08/01 04:02:48;;;;;;;1.02;0.82;;;;;;;;;;5026346;28;20025;-65
2021/08/01 04:05:14;;;;;;;0.80;0.80;;;;;;;;;;5026431;28;20541;-65
2021/08/01 04:07:40;;;;;;;0.82;0.70;;;;;;;;;;5026407;28;20029;-65
2021/08/01 04:10:07;;;;;;;1.38;0.95;;;;;;;;;;5026379;28;20057;-66
2021/08/01 04:12:33;;;;;;;1.75;1.13;;;;;;;;;;5025945;28;20032;-66
2021/08/01 04:15:00;;;;;;;2.38;1.10;;;;;;;;;;5025807;28;20021;-66
2021/08/01 04:17:29;;;;;;;1.23;0.85;;;;;;;;;;5026153;28;20333;-66
2021/08/01 04:19:55;;;;;;;1.23;1.13;;;;;;;;;;5026140;28;20032;-66
2021/08/01 04:22:21;;;;;;;1.85;1.10;;;;;;;;;;5025518;28;20037;-66
2021/08/01 04:24:48;;;;;;;1.42;1.20;;;;;;;;;;5026345;28;20087;-66
2021/08/01 04:27:14;;;;;;;2.28;1.00;;;;;;;;;;5026244;28;20064;-66
2021/08/01 04:29:40;;;;;;;1.55;0.85;;;;;;;;;;5026242;28;20056;-65
2021/08/01 04:32:06;;;;;;;1.58;1.17;;;;;;;;;;5025999;28;20055;-65
2021/08/01 04:34:33;;;;;;;1.33;1.17;;;;;;;;;;5026104;28;20035;-65
2021/08/01 04:36:59;;;;;;;2.08;1.20;;;;;;;;;;5026100;28;20558;-65
2021/08/01 04:39:25;;;;;;;2.88;1.40;;;;;;;;;;5026017;28;20031;-65
2021/08/01 04:41:53;;;;;;;1.02;1.00;;;;;;;;;;5026081;28;20409;-66
2021/08/01 04:44:19;;;;;;;3.30;1.02;;;;;;;;;;5025928;28;20021;-66
2021/08/01 04:46:45;;;;;;;2.33;1.10;;;;;;;;;;5026794;28;20026;-66
2021/08/01 04:49:12;;;;;;;1.10;1.00;;;;;;;;;;5026139;28;20416;-65
2021/08/01 04:51:39;;;;;;;1.23;1.10;;;;;;;;;;5026107;28;20021;-65
2021/08/01 04:54:05;;;;;;;1.08;0.98;;;;;;;;;;5029246;28;20487;-65
2021/08/01 04:56:31;;;;;;;1.10;1.00;;;;;;;;;;5029752;28;20036;-65
2021/08/01 04:58:58;;;;;;;1.13;0.90;;;;;;;;;;5029500;28;20025;-65
2021/08/01 05:01:25;;;;;;;1.10;0.80;;;;;;;;;;5029652;28;20064;-65
2021/08/01 05:03:51;;;;;;;1.23;1.08;;;;;;;;;;5029656;28;20128;-65
2021/08/01 05:06:17;;;;;;;2.38;1.30;;;;;;;;;;5029460;28;20164;-65
2021/08/01 05:08:43;;;;;;;1.60;1.23;;;;;;;;;;5029458;28;20033;-65
2021/08/01 05:11:09;;;;;;;1.75;1.20;;;;;;;;;;5029138;28;20021;-65
2021/08/01 05:13:35;;;;;;;1.52;1.00;;;;;;;;;;5029418;28;20033;-65
2021/08/01 05:16:02;;;;;;;1.63;1.10;;;;;;;;;;5029174;28;20152;-66
2021/08/01 05:18:28;;;;;;;0.80;0.80;;;;;;;;;;5029119;28;20049;-66
2021/08/01 05:20:54;;;;;;;2.47;1.00;;;;;;;;;;5029195;28;20415;-66
2021/08/01 05:23:21;;;;;;;1.27;1.17;;;;;;;;;;5028412;28;20030;-66
2021/08/01 05:25:47;;;;;;;1.85;0.90;;;;;;;;;;5029290;28;20388;-65
2021/08/01 05:28:13;;;;;;;1.23;0.85;;;;;;;;;;5029144;28;20037;-65
2021/08/01 05:30:39;;;;;;;1.30;0.95;;;;;;;;;;5029021;28;20072;-65
2021/08/01 05:33:10;;;;;;;1.30;0.93;;;;;;;;;;5028679;28;20037;-66
2021/08/01 05:35:36;;;;;;;0.85;0.80;;;;;;;;;;5029429;28;20025;-65
2021/08/01 05:38:02;;;;;;;2.13;1.00;;;;;;;;;;5028603;28;20017;-65
2021/08/01 05:40:28;;;;;;;1.25;1.00;;;;;;;;;;5029015;28;20020;-65
2021/08/01 05:42:56;;;;;;;1.50;1.00;;;;;;;;;;5029034;28;20399;-65
2021/08/01 05:45:22;;;;;;;0.80;0.80;;;;;;;;;;5028521;28;20037;-65
2021/08/01 05:47:48;;;;;;;1.13;0.90;;;;;;;;;;5042235;28;20111;-66
2021/08/01 05:50:14;;;;;;;0.90;0.90;;;;;;;;;;5031866;28;20155;-65
2021/08/01 05:52:40;;;;;;;0.80;0.75;;;;;;;;;;5031177;28;20068;-65
2021/08/01 05:55:07;;;;;;;1.02;0.90;;;;;;;;;;5035035;28;20763;-65
2021/08/01 05:57:33;;;;;;;1.00;0.90;;;;;;;;;;5048850;28;20021;-65
2021/08/01 05:59:59;;;;;;;1.65;1.00;;;;;;;;;;5049172;28;20391;-65
2021/08/01 06:02:25;;;;;;;1.23;0.95;;;;;;;;;;5048555;28;20029;-65
2021/08/01 06:04:51;;;;;;;1.15;0.90;;;;;;;;;;5047669;28;20029;-64
2021/08/01 06:07:18;;;;;;;1.10;0.80;;;;;;;;;;5048272;28;20033;-65
2021/08/01 06:09:47;;;;;;;1.15;1.05;;;;;;;;;;5049002;28;20020;-65
2021/08/01 06:12:13;;;;;;;1.10;0.98;;;;;;;;;;5044363;28;20025;-65
2021/08/01 06:14:39;;;;;;;0.95;0.95;;;;;;;;;;5045132;28;20417;-65
2021/08/01 06:17:05;;;;;;;1.17;1.10;;;;;;;;;;5045812;28;20029;-65
2021/08/01 06:19:31;;;;;;;1.45;1.17;;;;;;;;;;5047158;28;20104;-66
2021/08/01 06:21:58;;;;;;;0.82;0.80;;;;;;;;;;5046768;28;20311;-65
2021/08/01 06:24:25;;;;;;;0.80;0.80;;;;;;;;;;5045901;28;20021;-65
2021/08/01 06:26:52;;;;;;;0.98;0.80;;;;;;;;;;5045668;28;20441;-65
2021/08/01 06:29:19;;;;;;;1.20;1.10;;;;;;;;;;5032386;28;20029;-65
2021/08/01 06:31:45;;;;;;;1.40;1.23;;;;;;;;;;5027588;28;20040;-65
2021/08/01 06:34:11;;;;;;;2.40;1.30;;;;;;;;;;5027320;28;20021;-65
2021/08/01 06:36:38;;;;;;;1.58;1.00;;;;;;;;;;5027212;28;20029;-65
2021/08/01 06:39:06;;;;;;;1.60;1.00;;;;;;;;;;5038528;28;20785;-65
2021/08/01 06:41:32;;;;;;;1.77;1.10;;;;;;;;;;5043876;28;20042;-64
2021/08/01 06:43:58;;;;;;;1.13;1.02;;;;;;;;;;5042063;28;20010;-64
2021/08/01 06:46:24;;;;;;;1.80;1.10;;;;;;;;;;5027132;28;20037;-64
2021/08/01 06:48:50;;;;;;;1.45;1.27;;;;;;;;;;5027122;28;20518;-64
2021/08/01 06:51:16;;;;;;;1.20;1.10;;;;;;;;;;5027235;28;20061;-64
2021/08/01 06:53:42;;;;;;;1.73;1.30;;;;;;;;;;5027527;28;20032;-64
2021/08/01 06:56:08;;;;;;;1.23;1.13;;;;;;;;;;5027253;28;20372;-65
2021/08/01 06:58:34;;;;;;;1.20;1.10;;;;;;;;;;5026997;28;20029;-65
2021/08/01 07:01:04;;;;;;;1.63;1.23;;;;;;;;;;5027668;28;20032;-65
2021/08/01 07:03:31;;;;;;;1.08;1.08;;;;;;;;;;5027727;28;20036;-66
2021/08/01 07:05:58;;;;;;;1.30;1.00;;;;;;;;;;5026970;28;20033;-64
2021/08/01 07:08:24;;;;;;;1.45;1.00;;;;;;;;;;5027923;28;20435;-65
2021/08/01 07:10:50;;;;;;;0.90;0.85;;;;;;;;;;5027213;28;20490;-64
2021/08/01 07:13:16;;;;;;;1.10;1.00;;;;;;;;;;5026891;28;20048;-65
2021/08/01 07:15:42;;;;;;;1.52;0.95;;;;;;;;;;5026655;28;20608;-64
2021/08/01 07:18:08;;;;;;;1.17;1.00;;;;;;;;;;5029096;28;20025;-64
2021/08/01 07:20:34;;;;;;;1.23;1.08;;;;;;;;;;5027552;28;20530;-65
2021/08/01 07:23:00;;;;;;;1.13;1.00;;;;;;;;;;5028117;28;20436;-65
2021/08/01 07:25:26;;;;;;;1.30;1.20;;;;;;;;;;5026804;28;20033;-65
2021/08/01 07:27:53;;;;;;;0.75;0.68;;;;;;;;;;5026685;28;20064;-65
2021/08/01 07:30:19;;;;;;;0.82;0.82;;;;;;;;;;5043817;28;20033;-64
2021/08/01 07:32:45;;;;;;;0.98;0.82;;;;;;;;;;5046544;28;20021;-65
2021/08/01 07:35:11;;;;;;;1.38;1.00;;;;;;;;;;5046237;28;20083;-65
2021/08/01 07:37:38;;;;;;;1.15;1.00;;;;;;;;;;5044622;28;20056;-65
2021/08/01 07:40:04;;;;;;;0.95;0.90;;;;;;;;;;5038011;28;20104;-65
2021/08/01 07:42:30;;;;;;;0.82;0.80;;;;;;;;;;5041567;28;20437;-65
2021/08/01 07:45:01;;;;;;;1.15;1.05;;;;;;;;;;5035677;28;20036;-65
2021/08/01 07:47:30;;;;;;;1.35;0.80;;;;;;;;;;5043194;28;20112;-65
2021/08/01 07:49:56;;;;;;;1.10;1.00;;;;;;;;;;5039379;28;20119;-65
2021/08/01 07:52:22;;;;;;;1.35;1.08;;;;;;;;;;5028480;28;20384;-64
2021/08/01 07:54:48;;;;;;;1.48;0.93;;;;;;;;;;5063574;28;20031;-65
2021/08/01 07:57:26;;;;;;;1.35;0.93;;;;;;;;;;5058420;28;20028;-65
2021/08/01 07:59:54;;;;;;;1.05;0.95;;;;;;;;;;5040366;28;20028;-65
2021/08/01 08:02:20;;;;;;;1.33;1.10;;;;;;;;;;5026813;28;20465;-65
2021/08/01 08:04:47;;;;;;;0.98;0.90;;;;;;;;;;5026794;28;20064;-65
2021/08/01 08:07:15;;;;;;;1.60;1.20;;;;;;;;;;5032615;28;20108;-64
2021/08/01 08:09:41;;;;;;;2.00;1.20;;;;;;;;;;5032612;28;20088;-65
2021/08/01 08:12:07;;;;;;;0.80;0.75;;;;;;;;;;5042729;28;20396;-65
2021/08/01 08:14:33;;;;;;;1.35;0.73;;;;;;;;;;5033566;28;20037;-65
2021/08/01 08:16:59;;;;;;;0.80;0.80;;;;;;;;;;5045514;28;20017;-64
2021/08/01 08:19:27;;;;;;;1.10;0.90;;;;;;;;;;5032704;28;20108;-65
2021/08/01 08:21:53;;;;;;;1.65;0.80;;;;;;;;;;5024907;28;20040;-64
2021/08/01 08:24:19;;;;;;;0.85;0.73;;;;;;;;;;5024670;28;20026;-65
2021/08/01 08:26:45;;;;;;;2.60;0.77;;;;;;;;;;5025091;28;20030;-65
2021/08/01 08:29:12;;;;;;;2.05;0.70;;;;;;;;;;5038443;28;20036;-65
2021/08/01 08:31:39;;;;;;;1.25;0.80;;;;;;;;;;5034123;28;20028;-65
2021/08/01 08:34:06;;;;;;;0.90;0.90;;;;;;;;;;5039716;28;20510;-66
2021/08/01 08:36:32;;;;;;;0.80;0.80;;;;;;;;;;5037537;28;20033;-66
2021/08/01 08:38:58;;;;;;;0.90;0.70;;;;;;;;;;5041432;28;20032;-67
2021/08/01 08:41:24;;;;;;;1.40;0.73;;;;;;;;;;5046487;28;20399;-67
2021/08/01 08:43:50;;;;;;;0.80;0.80;;;;;;;;;;5049057;28;20383;-67
2021/08/01 08:46:17;;;;;;;0.80;0.80;;;;;;;;;;5048976;28;20045;-67
2021/08/01 08:48:44;;;;;;;0.73;0.73;;;;;;;;;;5049670;28;20529;-67
2021/08/01 08:51:10;;;;;;;1.35;0.80;;;;;;;;;;5032988;28;20021;-67
2021/08/01 08:53:40;;;;;;;2.53;0.85;;;;;;;;;;5028923;28;20053;-67
2021/08/01 08:56:07;;;;;;;0.75;0.70;;;;;;;;;;5028646;28;20040;-65
2021/08/01 08:58:33;;;;;;;1.85;0.90;;;;;;;;;;5030633;28;20026;-63
2021/08/01 09:01:00;;;;;;;0.88;0.80;;;;;;;;;;5039268;28;20021;-63
2021/08/01 09:03:26;;;;;;;2.15;0.98;;;;;;;;;;5041248;28;20018;-63
2021/08/01 09:05:56;;;;;;;0.80;0.80;;;;;;;;;;5035561;28;20034;-63
2021/08/01 09:08:24;;;;;;;1.25;0.75;;;;;;;;;;5041114;28;20493;-63
2021/08/01 09:10:50;;;;;;;1.95;0.98;;;;;;;;;;5029133;28;20105;-63
2021/08/01 09:13:35;;;;;;;0.95;0.90;;;;;;;;;;5040201;28;20183;-63
2021/08/01 09:16:01;;;;;;;1.33;0.80;;;;;;;;;;5052784;28;20068;-63
2021/08/01 09:18:33;;;;;;;0.93;0.70;;;;;;;;;;5067390;28;20060;-63
2021/08/01 09:20:59;;;;;;;0.57;0.57;;;;;;;;;;5063419;28;20032;-63
2021/08/01 09:23:25;;;;;;;0.70;0.60;;;;;;;;;;5043653;28;20029;-63
2021/08/01 09:25:58;;;;;;;0.68;0.60;;;;;;;;;;5031980;28;20499;-63
2021/08/01 09:28:25;;;;;;;0.97;0.80;;;;;;;;;;5032518;28;20033;-65
2021/08/01 09:30:55;;;;;;;1.38;0.80;;;;;;;;;;5039366;28;20314;-72
2021/08/01 09:33:33;;;;;;;0.88;0.70;;;;;;;;;;5045621;28;20411;-71
2021/08/01 09:36:13;;;;;;;1.95;0.70;;;;;;;;;;5027591;28;20480;-71
2021/08/01 09:38:46;;;;;;;0.80;0.70;;;;;;;;;;5026122;28;20029;-70
2021/08/01 09:41:12;;;;;;;0.90;0.90;;;;;;;;;;5042369;28;20051;-70
2021/08/01 09:43:45;;;;;;;1.48;0.90;;;;;;;;;;5046987;28;20013;-71
2021/08/01 09:46:11;;;;;;;1.15;0.80;;;;;;;;;;5041759;28;20072;-70
2021/08/01 09:48:38;;;;;;;0.80;0.80;;;;;;;;;;5037903;28;20120;-70
2021/08/01 09:51:04;;;;;;;1.48;1.00;;;;;;;;;;5043175;28;20096;-72
2021/08/01 09:53:31;;;;;;;0.73;0.70;;;;;;;;;;5033588;28;20534;-67
2021/08/01 09:56:09;;;;;;;1.63;0.93;;;;;;;;;;5027412;28;20403;-68
2021/08/01 09:58:36;;;;;;;1.35;0.90;;;;;;;;;;5027758;28;20025;-60
2021/08/01 10:01:02;;;;;;;1.15;0.80;;;;;;;;;;5027037;28;20025;-60
2021/08/01 10:03:35;;;;;;;1.00;0.80;;;;;;;;;;5027969;28;20491;-60
2021/08/01 10:06:27;;;;;;;0.73;0.73;;;;;;;;;;5027175;28;20068;-61
2021/08/01 10:08:54;;;;;;;0.95;0.70;;;;;;;;;;5042741;28;20123;-61
2021/08/01 10:11:23;;;;;;;0.82;0.57;;;;;;;;;;5047437;28;20033;-60
2021/08/01 10:13:51;;;;;;;1.00;0.80;;;;;;;;;;5028236;28;20025;-61
2021/08/01 10:16:17;;;;;;;0.80;0.77;;;;;;;;;;5026624;28;20514;-61
2021/08/01 10:18:44;;;;;;;1.60;0.60;;;;;;;;;;5027204;28;20013;-67
2021/08/01 10:21:12;;;;;;;0.70;0.70;;;;;;;;;;5032094;28;20067;-65
2021/08/01 10:23:43;;;;;;;0.70;0.70;;;;;;;;;;5035338;28;20096;-70
2021/08/01 10:26:09;;;;;;;0.40;0.40;;;;;;;;;;5043681;28;20037;-72
2021/08/01 10:28:40;;;;;;;0.70;0.70;;;;;;;;;;5039295;28;20029;-74
2021/08/01 10:31:08;;;;;;;1.27;1.00;;;;;;;;;;5037211;28;20037;-72
2021/08/01 10:33:55;;;;;;;0.70;0.70;;;;;;;;;;5044060;28;20040;-69
2021/08/01 10:36:25;;;;;;;1.30;0.90;;;;;;;;;;5030385;28;20104;-66
2021/08/01 10:38:52;;;;;;;0.85;0.80;;;;;;;;;;5026426;28;20017;-69
2021/08/01 10:41:20;;;;;;;0.80;0.80;;;;;;;;;;5026393;28;20029;-69
2021/08/01 10:43:48;;;;;;;0.93;0.85;;;;;;;;;;5026151;28;20033;-67
2021/08/01 10:46:17;;;;;;;1.58;1.05;;;;;;;;;;5040127;28;20047;-67
2021/08/01 10:48:43;;;;;;;1.27;1.15;;;;;;;;;;5047951;28;20028;-66
2021/08/01 10:51:09;;;;;;;0.93;0.80;;;;;;;;;;5040105;28;20036;-68
2021/08/01 10:53:36;;;;;;;0.77;0.77;;;;;;;;;;5032201;28;20096;-69
2021/08/01 10:56:08;;;;;;;0.70;0.70;;;;;;;;;;5037235;28;20141;-69
2021/08/01 10:58:38;;;;;;;1.45;0.98;;;;;;;;;;5029710;28;20014;-69
2021/08/01 11:01:10;;;;;;;0.73;0.70;;;;;;;;;;5036267;28;20028;-71
2021/08/01 11:03:40;;;;;;;1.27;0.90;;;;;;;;;;5047254;28;20098;-68
2021/08/01 11:06:07;;;;;;;0.85;0.70;;;;;;;;;;5030711;28;20080;-66
2021/08/01 11:08:35;;;;;;;1.42;0.77;;;;;;;;;;5046251;28;20438;-70
2021/08/01 11:11:10;;;;;;;0.70;0.70;;;;;;;;;;5027045;28;20044;-69
2021/08/01 11:13:38;;;;;;;0.70;0.70;;;;;;;;;;5036981;28;20539;-69
2021/08/01 11:16:06;;;;;;;0.60;0.60;;;;;;;;;;5030348;28;20033;-70
2021/08/01 11:18:50;;;;;;;0.63;0.63;;;;;;;;;;5043012;28;20029;-70
2021/08/01 11:21:34;;;;;;;0.60;0.60;;;;;;;;;;5026231;28;20037;-72
2021/08/01 11:24:00;;;;;;;0.70;0.70;;;;;;;;;;5030538;28;20099;-70
2021/08/01 11:26:28;;;;;;;0.77;0.60;;;;;;;;;;5039150;28;20056;-72
2021/08/01 11:29:08;;;;;;;0.60;0.60;;;;;;;;;;5045526;28;20110;-74
2021/08/01 11:31:35;;;;;;;0.70;0.57;;;;;;;;;;5025398;28;20033;-74
2021/08/01 11:34:19;;;;;;;0.70;0.60;;;;;;;;;;5035279;28;20024;-74
2021/08/01 11:36:47;;;;;;;0.73;0.50;;;;;;;;;;5037577;28;20033;-73
2021/08/01 11:39:14;;;;;;;0.80;0.55;;;;;;;;;;5033592;28;20184;-72
2021/08/01 11:41:41;;;;;;;0.60;0.60;;;;;;;;;;5033866;28;20025;-73
2021/08/01 11:44:16;;;;;;;0.55;0.55;;;;;;;;;;5034434;28;20052;-68
2021/08/01 11:47:00;;;;;;;0.85;0.80;;;;;;;;;;5036922;28;20033;-69
2021/08/01 11:49:27;;;;;;;;;;;;;;;;;;5030155;28;20748;-69
2021/08/01 11:51:58;;;;;;;0.55;0.55;;;;;;;;;;5030089;28;20340;-70
2021/08/01 11:54:29;;;;;;;0.40;0.40;;;;;;;;;;5030221;28;20078;-69
2021/08/01 11:56:59;;;;;;;0.60;0.60;;;;;;;;;;5028067;28;20060;-73
2021/08/01 11:59:26;;;;;;;1.05;0.50;;;;;;;;;;5027547;28;20021;-72
2021/08/01 12:01:56;;;;;;;0.57;0.50;;;;;;;;;;5027453;28;20033;-68
2021/08/01 12:04:23;;;;;;;0.40;0.40;;;;;;;;;;5035165;28;20123;-68
2021/08/01 12:06:51;;;;;;;0.47;0.47;;;;;;;;;;5035232;28;20026;-68
2021/08/01 12:09:36;;;;;;;0.60;0.60;;;;;;;;;;5028819;28;20507;-66
2021/08/01 12:12:03;;;;;;;1.77;0.70;;;;;;;;;;5034084;28;20035;-68
2021/08/01 12:14:34;;;;;;;0.75;0.70;;;;;;;;;;5037320;28;20435;-70
2021/08/01 12:17:01;;;;;;;0.50;0.50;;;;;;;;;;5035486;28;20025;-73
2021/08/01 12:19:28;;;;;;;0.47;0.47;;;;;;;;;;5037102;28;20036;-71
2021/08/01 12:21:57;;;;;;;1.38;1.00;;;;;;;;;;5030816;28;20025;-72
2021/08/01 12:24:27;;;;;;;0.77;0.70;;;;;;;;;;5036750;28;20037;-73
2021/08/01 12:26:58;;;;;;;0.50;0.50;;;;;;;;;;5040032;28;20025;-73
2021/08/01 12:29:28;;;;;;;0.50;0.50;;;;;;;;;;5033095;28;20038;-74
2021/08/01 12:31:54;;;;;;;0.80;0.50;;;;;;;;;;5038148;28;20391;-74
2021/08/01 12:34:23;;;;;;;0.60;0.60;;;;;;;;;;5031079;28;20036;-74
2021/08/01 12:36:49;;;;;;;0.60;0.60;;;;;;;;;;5026989;28;20030;-71
2021/08/01 12:39:18;;;;;;;0.43;0.43;;;;;;;;;;5039652;28;20495;-72
2021/08/01 12:41:44;;;;;;;0.77;0.60;;;;;;;;;;5032484;28;20028;-73
2021/08/01 12:44:14;;;;;;;0.57;0.57;;;;;;;;;;5038496;28;20021;-73
2021/08/01 12:46:41;;;;;;;0.68;0.68;;;;;;;;;;5033940;28;20120;-73
2021/08/01 12:49:07;;;;;;;0.77;0.77;;;;;;;;;;5029748;28;20036;-72
2021/08/01 12:51:35;;;;;;;0.80;0.70;;;;;;;;;;5029462;28;20088;-73
2021/08/01 12:54:01;;;;;;;1.25;0.68;;;;;;;;;;5034505;28;20044;-73
2021/08/01 12:56:27;;;;;;;0.55;0.55;;;;;;;;;;5032649;28;20033;-70
2021/08/01 12:59:09;;;;;;;0.50;0.50;;;;;;;;;;5031485;28;20055;-71
2021/08/01 13:01:40;;;;;;;0.73;0.50;;;;;;;;;;5037237;28;20022;-72
2021/08/01 13:04:07;;;;;;;0.50;0.50;;;;;;;;;;5034311;28;20511;-73
2021/08/01 13:06:34;;;;;;;0.50;0.50;;;;;;;;;;5031399;28;20532;-73
2021/08/01 13:09:04;;;;;;;0.50;0.50;;;;;;;;;;5039456;28;20029;-72
2021/08/01 13:11:36;;;;;;;0.60;0.60;;;;;;;;;;5028312;28;20033;-71
2021/08/01 13:14:03;;;;;;;0.45;0.45;;;;;;;;;;5029777;28;20556;-72
2021/08/01 13:16:50;;;;;;;0.50;0.50;;;;;;;;;;5041375;28;20545;-73
2021/08/01 13:19:17;;;;;;;0.50;0.50;;;;;;;;;;5031534;28;20188;-74
2021/08/01 13:22:02;;;;;;;0.50;0.43;;;;;;;;;;5035274;28;20052;-73
2021/08/01 13:24:33;;;;;;;0.43;0.43;;;;;;;;;;5034695;28;20033;-73
2021/08/01 13:27:01;;;;;;;0.60;0.60;;;;;;;;;;5038591;28;20033;-72
2021/08/01 13:29:27;;;;;;;0.70;0.70;;;;;;;;;;5031929;28;20043;-70
2021/08/01 13:31:54;;;;;;;0.57;0.43;;;;;;;;;;5042336;28;20104;-56
2021/08/01 13:34:21;;;;;;;0.50;0.50;;;;;;;;;;5039600;28;20049;-57
2021/08/01 13:36:49;;;;;;;0.68;0.50;;;;;;;;;;5036804;28;20032;-58
2021/08/01 13:39:19;;;;;;;0.45;0.45;;;;;;;;;;5030027;28;20096;-56
2021/08/01 13:42:04;;;;;;;0.60;0.60;;;;;;;;;;5026769;28;20134;-56
2021/08/01 13:44:30;;;;;;;0.60;0.60;;;;;;;;;;5029101;28;20648;-56
2021/08/01 13:47:12;;;;;;;0.70;0.70;;;;;;;;;;5029465;28;20104;-56
2021/08/01 13:49:41;;;;;;;0.63;0.63;;;;;;;;;;5030927;28;20029;-56
2021/08/01 13:52:08;;;;;;;0.60;0.50;;;;;;;;;;5028050;28;20100;-56
2021/08/01 13:54:35;;;;;;;0.60;0.60;;;;;;;;;;5038676;28;20091;-56
2021/08/01 13:57:05;;;;;;;0.70;0.50;;;;;;;;;;5026710;28;20025;-55
2021/08/01 13:59:31;;;;;;;0.45;0.40;;;;;;;;;;5026541;28;20116;-55
2021/08/01 14:01:57;;;;;;;0.50;0.50;;;;;;;;;;5028180;28;20029;-55
2021/08/01 14:04:23;;;;;;;0.70;0.65;;;;;;;;;;5029406;28;20033;-55
2021/08/01 14:06:49;;;;;;;1.35;0.60;;;;;;;;;;5040683;28;20108;-55
2021/08/01 14:09:15;;;;;;;0.70;0.70;;;;;;;;;;5039004;28;20032;-56
2021/08/01 14:11:41;;;;;;;0.55;0.55;;;;;;;;;;5028762;28;20403;-56
2021/08/01 14:14:07;;;;;;;0.68;0.60;;;;;;;;;;5033390;28;20725;-56
2021/08/01 14:16:33;;;;;;;0.70;0.60;;;;;;;;;;5029423;28;20088;-57
2021/08/01 14:18:59;;;;;;;0.73;0.73;;;;;;;;;;5032595;28;20487;-56
2021/08/01 14:21:26;;;;;;;0.77;0.65;;;;;;;;;;5026125;28;20076;-57
2021/08/01 14:23:52;;;;;;;0.40;0.40;;;;;;;;;;5029588;28;20109;-57
2021/08/01 14:26:19;;;;;;;1.08;0.80;;;;;;;;;;5038667;28;20104;-57
2021/08/01 14:28:46;;;;;;;0.65;0.60;;;;;;;;;;5046621;28;20032;-57
2021/08/01 14:31:15;;;;;;;0.90;0.75;;;;;;;;;;5027190;28;20032;-57
2021/08/01 14:33:43;;;;;;;0.60;0.60;;;;;;;;;;5025795;28;20108;-57
2021/08/01 14:36:10;;;;;;;0.70;0.60;;;;;;;;;;5026256;28;20033;-57
2021/08/01 14:38:37;;;;;;;1.27;0.80;;;;;;;;;;5025450;28;20510;-57
2021/08/01 14:41:04;;;;;;;1.08;0.80;;;;;;;;;;5026366;28;20022;-57
2021/08/01 14:43:30;;;;;;;0.50;0.50;;;;;;;;;;5026186;28;20433;-57
2021/08/01 14:45:56;;;;;;;0.65;0.65;;;;;;;;;;5026037;28;20419;-56
2021/08/01 14:48:26;;;;;;;1.02;0.80;;;;;;;;;;5028639;28;20048;-56